WetterOnline ( https://www.wetteronline.de )

Wetter aktuell Eichstätt

Aktuelles Wetter: Weißenburg (424m)

6-stündlich | Neueste Meldungen
Ortszeit Temperatur Wetter
Mi, 22.05. 20:00 16.1° C bewölkt
Mi, 22.05. 14:00 16.4° C bedeckt
Mi, 22.05. 8:00 13.4° C bedeckt
Mi, 22.05. 2:00 12.8° C leichter Regen
Di, 21.05. 20:00 13.7° C leichter Regen
Di, 21.05. 14:00 16.9° C leichter Regen
Di, 21.05. 8:00 13.1° C bedeckt
Di, 21.05. 2:00 12.1° C wolkig
Ortszeit Temperatur Wetter
Mi, 22.05. 22:00 14.1° C bewölkt
Mi, 22.05. 21:50 14.1° C bewölkt
Mi, 22.05. 21:40 14.0° C bedeckt
Mi, 22.05. 21:30 14.4° C bedeckt
Mi, 22.05. 21:20 14.4° C bedeckt
Mi, 22.05. 21:10 14.5° C bedeckt
Mi, 22.05. 21:00 14.8° C bedeckt
Mi, 22.05. 20:30 15.7° C bedeckt
Mi, 22.05. 20:00 16.1° C bewölkt
Mi, 22.05. 19:30 16.9° C bewölkt
Mi, 22.05. 19:00 17.2° C bewölkt
Ortszeit Relative Feuchte Sichtweite
Mi, 22.05. 20:00 74% >70 km
Mi, 22.05. 14:00 77% >70 km
Mi, 22.05. 8:00 89% >70 km
Mi, 22.05. 2:00 96% 45 km
Di, 21.05. 20:00 94% 29 km
Di, 21.05. 14:00 87% 29 km
Di, 21.05. 8:00 92% 60 km
Di, 21.05. 2:00 91% 50 km
Ortszeit Relative Feuchte Sichtweite
Mi, 22.05. 22:00 88% 65 km
Mi, 22.05. 21:50 88% -
Mi, 22.05. 21:40 89% -
Mi, 22.05. 21:30 86% >70 km
Mi, 22.05. 21:20 86% -
Mi, 22.05. 21:10 84% -
Mi, 22.05. 21:00 80% >70 km
Mi, 22.05. 20:30 74% >70 km
Mi, 22.05. 20:00 74% >70 km
Mi, 22.05. 19:30 69% 60 km
Mi, 22.05. 19:00 67% 65 km
Ortszeit Niederschlagsmenge Niederschlagsart
Mi, 22.05. 20:00 1 l/m2 in 12 Std. Regen
Mi, 22.05. 14:00 1 l/m2 in 6 Std. Regen
Mi, 22.05. 8:00 3 l/m2 in 12 Std. Regen
Mi, 22.05. 2:00 3 l/m2 in 6 Std. Regen
Di, 21.05. 20:00 1 l/m2 in 12 Std. Regen
Di, 21.05. 14:00 0.3 l/m2 in 6 Std. Regen
Di, 21.05. 8:00 0.0 l/m2 in 12 Std. -
Di, 21.05. 2:00 0.0 l/m2 in 6 Std. -
Ortszeit Niederschlagsmenge Niederschlagsart
Mi, 22.05. 22:00 0.0 l/m2 in 1 Std. -
Mi, 22.05. 21:50 keine Meldung -
Mi, 22.05. 21:40 keine Meldung -
Mi, 22.05. 21:30 0.0 l/m2 in 30 Min -
Mi, 22.05. 21:20 keine Meldung -
Mi, 22.05. 21:10 keine Meldung -
Mi, 22.05. 21:00 0.0 l/m2 in 1 Std. -
Mi, 22.05. 20:30 0.0 l/m2 in 30 Min -
Mi, 22.05. 20:00 0.0 l/m2 in 1 Std. Regen
Mi, 22.05. 19:30 0.0 l/m2 in 30 Min -
Mi, 22.05. 19:00 0.0 l/m2 in 1 Std. -
Ortszeit Stärke Spitze Richtung
km/h Bft. km/h Grad Sektor
Mi, 22.05. 20:00 11 2 32 250° W
Mi, 22.05. 14:00 9 2 41 300° NW
Mi, 22.05. 8:00 14 3 25 220° SW
Mi, 22.05. 2:00 13 3 24 190° S
Di, 21.05. 20:00 11 2 32 250° W
Di, 21.05. 14:00 9 2 17 270° W
Di, 21.05. 8:00 4 1 11 230° SW
Di, 21.05. 2:00 4 1 14 30° NO
Ortszeit Stärke Spitze Richtung
km/h Bft. km/h Grad Sektor
Mi, 22.05. 22:00 7 2 15 210° SW
Mi, 22.05. 21:50 7 2 - 210° SW
Mi, 22.05. 21:40 9 2 - 210° SW
Mi, 22.05. 21:30 9 2 13 210° SW
Mi, 22.05. 21:20 9 2 - 210° SW
Mi, 22.05. 21:10 9 2 - 230° SW
Mi, 22.05. 21:00 11 2 18 240° SW
Mi, 22.05. 20:30 13 3 19 230° SW
Mi, 22.05. 20:00 11 2 18 250° W
Mi, 22.05. 19:30 13 3 19 270° W
Mi, 22.05. 19:00 13 3 28 290° W
Ortszeit Untergrenze Bedeckung Gattung
total tief tief mittel hoch
Mi, 22.05. 20:00 1800 m 7/8 6/8 - - -
Mi, 22.05. 14:00 1800 m 8/8 8/8 - - -
Mi, 22.05. 8:00 3900 m 8/8 8/8 - - -
Mi, 22.05. 2:00 1800 m 7/8 7/8 - - -
Di, 21.05. 20:00 480 m 8/8 8/8 - - -
Di, 21.05. 14:00 600 m 8/8 7/8 - - -
Di, 21.05. 8:00 3600 m 8/8 8/8 - - -
Di, 21.05. 2:00 9000 m 8/8 0/8 - - -
Ortszeit Bedeckungsgrad in Achtel und Wolkenuntergrenze
Mi, 22.05. 22:00 1(2100m) 7(2400m)
Mi, 22.05. 21:50 1(2100m) 7(2400m)
Mi, 22.05. 21:40 8
Mi, 22.05. 21:30 2(2100m) 8(2400m)
Mi, 22.05. 21:20 2(2100m) 8(2400m)
Mi, 22.05. 21:10 8
Mi, 22.05. 21:00 8(2400m)
Mi, 22.05. 20:30 7(2100m) 8(2400m) 8(3300m)
Mi, 22.05. 20:00 3(1800m) 6(2100m) 7(3000m)
Mi, 22.05. 19:30 2(1110m) 3(1500m) 7(2100m)
Mi, 22.05. 19:00 7(2100m)
Ortszeit Luftdruck NN (hPa) Tendenz (hPa in 3 Std.)
Mi, 22.05. 20:00 1012 + 0,7
Mi, 22.05. 14:00 1012 + 0,6
Mi, 22.05. 8:00 1010 + 1,1
Mi, 22.05. 2:00 1009 + 0,4
Di, 21.05. 20:00 1007 + 1,2
Di, 21.05. 14:00 1005 0,0
Di, 21.05. 8:00 1006 - 0,3
Di, 21.05. 2:00 1008 - 1,0
Ortszeit Luftdruck NN (hPa) Tendenz (hPa in 3 Std.)
Mi, 22.05. 22:00 1014 + 1,9
Mi, 22.05. 21:50 1014 keine Meldung
Mi, 22.05. 21:40 1014 keine Meldung
Mi, 22.05. 21:30 1014 + 1,7
Mi, 22.05. 21:20 1014 keine Meldung
Mi, 22.05. 21:10 1014 keine Meldung
Mi, 22.05. 21:00 1013 + 1,3
Mi, 22.05. 20:30 1013 + 1,1
Mi, 22.05. 20:00 1012 + 0,7
Mi, 22.05. 19:30 1012 + 0,2
Mi, 22.05. 19:00 1012 0,0
Ortszeit Schneehöhe (cm)
Mi, 22.05. 20:00 0
Mi, 22.05. 14:00 0
Mi, 22.05. 8:00 0
Mi, 22.05. 2:00 0
Di, 21.05. 20:00 0
Di, 21.05. 14:00 0
Di, 21.05. 8:00 0
Di, 21.05. 2:00 0
Ortszeit Schneehöhe (cm)
Mi, 22.05. 22:00 0
Mi, 22.05. 21:50 0
Mi, 22.05. 21:40 -
Mi, 22.05. 21:30 0
Mi, 22.05. 21:20 0
Mi, 22.05. 21:10 -
Mi, 22.05. 21:00 0
Mi, 22.05. 20:30 0
Mi, 22.05. 20:00 0
Mi, 22.05. 19:30 0
Mi, 22.05. 19:00 0
Link zu dieser Seite / Seite empfehlen

Das Wetter in ...